Change the Weather History Date:

Tuesday, December 17, 2013

  Actual Average (KEFC) Record (KEFC)
Temperature  
Mean Temperature 39 °F -  
Max Temperature 55 °F 39 °F 69 °F (1976)
Min Temperature 23 °F 13 °F -23 °F (1964)
Degree Days  
Heating Degree Days 26    
Moisture  
Dew Point 21 °F    
Average Humidity 56    
Maximum Humidity 93    
Minimum Humidity 24    
Precipitation  
Precipitation 0.00 in - - ()
Sea Level Pressure  
Sea Level Pressure 30.05 in    
Wind  
Wind Speed 11 mph (WSW)    
Max Wind Speed 24 mph    
Max Gust Speed 30 mph    
Visibility 10 miles    
Events      
Averages and records for this station are not official NWS values.
T = Trace of Precipitation, MM = Missing Value Source: NWS Daily Summary

Daily Weather History Graph

Daily Weather History Graph

Search for Another Location

Airport or City:

Trip Planner

Search our weather history database for the weather conditions in past years. The results will help you decide how hot, cold, wet, or windy it might be!

Date:

Astronomy

Dec. 17, 2013 Rise Set
Actual Time 8:26 AM CST 5:16 PM CST
Civil Twilight 7:52 AM CST 5:50 PM CST
Nautical Twilight 7:15 AM CST 6:26 PM CST
Astronomical Twilight 6:40 AM CST 7:02 PM CST
Moon 6:01 PM CST (12/17) 8:21 AM CST (12/17)
Length of Visible Light 9h 57m
Length of Day
8h 50m
Full, 100% of the Moon is Illuminated
Dec 17
Full
Dec 25
Last Quarter
Jan 1
New
Jan 7
First Quarter
Jan 15
Full

Hourly Weather History & Observations

Time (CST) Temp. Windchill Dew Point Humidity Pressure Visibility Wind Dir Wind Speed Gust Speed Precip Events Conditions
12:15 AM 35.6 °F 26.2 °F 21.2 °F 56% 30.17 in 10.0 mi West 15.0 mph - N/A   Overcast
12:35 AM 35.6 °F 26.2 °F 21.2 °F 56% 30.17 in 10.0 mi West 15.0 mph - N/A   Scattered Clouds
12:55 AM 35.6 °F 27.1 °F 21.2 °F 56% 30.17 in 10.0 mi West 12.7 mph - N/A   Clear
1:15 AM 35.6 °F 25.2 °F 21.2 °F 56% 30.18 in 10.0 mi West 18.4 mph 23.0 mph N/A   Partly Cloudy
1:35 AM 32.0 °F 22.5 °F 23.0 °F 69% 30.19 in 10.0 mi NW 12.7 mph - N/A   Clear
1:55 AM 32.0 °F 23.0 °F 23.0 °F 69% 30.19 in 10.0 mi NW 11.5 mph - N/A   Clear
2:15 AM 30.2 °F 19.8 °F 23.0 °F 75% 30.20 in 10.0 mi NNW 13.8 mph - N/A   Clear
2:35 AM 28.4 °F 17.5 °F 24.8 °F 86% 30.21 in 10.0 mi NNW 13.8 mph 21.9 mph N/A   Clear
2:55 AM 28.4 °F 18.5 °F 24.8 °F 86% 30.22 in 10.0 mi NW 11.5 mph - N/A   Clear
3:15 AM 26.6 °F 17.5 °F 23.0 °F 86% 30.23 in 10.0 mi WNW 9.2 mph - N/A   Clear
3:35 AM 26.6 °F 17.5 °F 23.0 °F 86% 30.24 in 10.0 mi WNW 9.2 mph - N/A   Clear
3:55 AM 26.6 °F 18.2 °F 23.0 °F 86% 30.24 in 10.0 mi West 8.1 mph - N/A   Clear
4:15 AM 24.8 °F 16.9 °F 23.0 °F 93% 30.23 in 10.0 mi West 6.9 mph - N/A   Clear
4:35 AM 24.8 °F 15.3 °F 23.0 °F 93% 30.24 in 10.0 mi West 9.2 mph - N/A   Clear
4:55 AM 24.8 °F 15.3 °F 23.0 °F 93% 30.23 in 10.0 mi West 9.2 mph - N/A   Clear
5:15 AM 24.8 °F 16.1 °F 23.0 °F 93% 30.24 in 10.0 mi West 8.1 mph - N/A   Clear
5:35 AM 24.8 °F 16.9 °F 23.0 °F 93% 30.23 in 10.0 mi West 6.9 mph - N/A   Clear
5:55 AM 24.8 °F 16.9 °F 23.0 °F 93% 30.22 in 10.0 mi West 6.9 mph - N/A   Clear
6:15 AM 23.0 °F 17.0 °F 21.2 °F 93% 30.23 in 10.0 mi West 4.6 mph - N/A   Clear
6:35 AM 23.0 °F 17.0 °F 21.2 °F 93% 30.23 in 10.0 mi WSW 4.6 mph - N/A   Clear
6:55 AM 23.0 °F 17.0 °F 19.4 °F 86% 30.22 in 10.0 mi WSW 4.6 mph - N/A   Clear
7:15 AM 23.0 °F 14.7 °F 19.4 °F 86% 30.22 in 10.0 mi WSW 6.9 mph - N/A   Clear
7:35 AM 23.0 °F 15.8 °F 19.4 °F 86% 30.21 in 10.0 mi SW 5.8 mph - N/A   Clear
7:55 AM 23.0 °F 15.8 °F 19.4 °F 86% 30.20 in 10.0 mi SW 5.8 mph - N/A   Clear
8:15 AM 23.0 °F 14.7 °F 19.4 °F 86% 30.20 in 10.0 mi SW 6.9 mph - N/A   Clear
8:35 AM 23.0 °F 17.0 °F 19.4 °F 86% 30.19 in 10.0 mi SSW 4.6 mph - N/A   Clear
8:55 AM 23.0 °F - 19.4 °F 86% 30.18 in 10.0 mi Calm Calm - N/A   Clear
9:15 AM 24.8 °F 16.9 °F 21.2 °F 86% 30.17 in 10.0 mi SE 6.9 mph - N/A   Clear
9:35 AM 24.8 °F 16.9 °F 23.0 °F 93% 30.16 in 10.0 mi SE 6.9 mph - N/A   Clear
9:55 AM 26.6 °F 21.2 °F 23.0 °F 86% 30.16 in 10.0 mi SE 4.6 mph - N/A   Clear
10:15 AM 28.4 °F 22.2 °F 24.8 °F 86% 30.15 in 10.0 mi SE 5.8 mph - N/A   Clear
10:35 AM 32.0 °F 27.5 °F 24.8 °F 75% 30.14 in 10.0 mi ESE 4.6 mph - N/A   Clear
10:55 AM 32.0 °F 27.5 °F 24.8 °F 75% 30.14 in 10.0 mi ESE 4.6 mph - N/A   Clear
11:15 AM 32.0 °F 27.5 °F 24.8 °F 75% 30.13 in 10.0 mi East 4.6 mph - N/A   Clear
11:35 AM 35.6 °F 32.8 °F 24.8 °F 65% 30.11 in 10.0 mi ESE 3.5 mph - N/A   Clear
11:55 AM 37.4 °F 33.8 °F 23.0 °F 56% 30.09 in 10.0 mi ESE 4.6 mph - N/A   Clear
12:15 PM 39.2 °F 37.0 °F 24.8 °F 56% 30.07 in 10.0 mi ENE 3.5 mph - N/A   Clear
12:35 PM 39.2 °F 37.0 °F 24.8 °F 56% 30.05 in 10.0 mi ESE 3.5 mph - N/A   Clear
12:55 PM 41.0 °F 39.0 °F 24.8 °F 53% 30.03 in 10.0 mi East 3.5 mph - N/A   Clear
1:15 PM 42.8 °F 41.1 °F 24.8 °F 49% 30.01 in 10.0 mi East 3.5 mph - N/A   Clear
1:35 PM 44.6 °F 42.2 °F 24.8 °F 46% 30.00 in 10.0 mi ENE 4.6 mph - N/A   Clear
1:55 PM 44.6 °F 42.2 °F 24.8 °F 46% 29.99 in 10.0 mi ENE 4.6 mph - N/A   Clear
2:15 PM 46.4 °F - 24.8 °F 43% 29.97 in 10.0 mi Calm Calm - N/A   Clear
2:35 PM 51.8 °F - 21.2 °F 30% 29.96 in 10.0 mi West 12.7 mph 24.2 mph N/A   Clear
2:55 PM 55.4 °F - 19.4 °F 25% 29.94 in 10.0 mi West 20.7 mph 28.8 mph N/A   Clear
3:15 PM 55.4 °F - 21.2 °F 26% 29.94 in 10.0 mi West 19.6 mph 29.9 mph N/A   Clear
3:35 PM 55.4 °F - 19.4 °F 25% 29.93 in 10.0 mi West 16.1 mph 26.5 mph N/A   Clear
3:55 PM 55.4 °F - 19.4 °F 25% 29.93 in 10.0 mi West 13.8 mph 24.2 mph N/A   Clear
4:15 PM 53.6 °F - 19.4 °F 26% 29.92 in 10.0 mi West 16.1 mph 21.9 mph N/A   Clear
4:35 PM 53.6 °F - 19.4 °F 26% 29.92 in 10.0 mi West 16.1 mph 25.3 mph N/A   Clear
4:55 PM 53.6 °F - 19.4 °F 26% 29.91 in 10.0 mi West 10.4 mph - N/A   Clear
5:15 PM 48.2 °F - 19.4 °F 32% 29.90 in 10.0 mi West 9.2 mph - N/A   Clear
5:35 PM 50.0 °F - 19.4 °F 30% 29.89 in 10.0 mi WSW 12.7 mph - N/A   Clear
5:55 PM 50.0 °F - 19.4 °F 30% 29.88 in 10.0 mi WSW 15.0 mph 19.6 mph N/A   Clear
6:15 PM 50.0 °F - 19.4 °F 30% 29.88 in 10.0 mi West 10.4 mph - N/A   Clear
6:35 PM 48.2 °F - 19.4 °F 32% 29.87 in 10.0 mi WNW 8.1 mph - N/A   Clear
6:55 PM 50.0 °F - 17.6 °F 28% 29.86 in 10.0 mi WSW 18.4 mph 23.0 mph N/A   Clear
7:15 PM 51.8 °F - 17.6 °F 26% 29.85 in 10.0 mi WSW 18.4 mph 26.5 mph N/A   Clear
7:35 PM 51.8 °F - 17.6 °F 26% 29.85 in 10.0 mi WSW 19.6 mph 29.9 mph N/A   Clear
7:55 PM 53.6 °F - 17.6 °F 24% 29.84 in 10.0 mi WSW 21.9 mph 28.8 mph N/A   Clear
8:15 PM 53.6 °F - 17.6 °F 24% 29.84 in 10.0 mi WSW 20.7 mph 28.8 mph N/A   Clear
8:35 PM 53.6 °F - 17.6 °F 24% 29.84 in 10.0 mi WSW 20.7 mph 29.9 mph N/A   Clear
8:55 PM 53.6 °F - 17.6 °F 24% 29.84 in 10.0 mi SW 20.7 mph 26.5 mph N/A   Clear
9:15 PM 53.6 °F - 17.6 °F 24% 29.84 in 10.0 mi WSW 18.4 mph 26.5 mph N/A   Clear
9:35 PM 53.6 °F - 17.6 °F 24% 29.84 in 10.0 mi SW 20.7 mph 28.8 mph N/A   Clear
9:55 PM 51.8 °F - 19.4 °F 28% 29.84 in 10.0 mi West 11.5 mph - N/A   Clear
10:15 PM 50.0 °F - 19.4 °F 30% 29.84 in 10.0 mi West 11.5 mph 19.6 mph N/A   Clear
10:35 PM 48.2 °F - 19.4 °F 32% 29.83 in 10.0 mi West 9.2 mph 16.1 mph N/A   Clear
10:55 PM 48.2 °F - 19.4 °F 32% 29.83 in 10.0 mi West 11.5 mph - N/A   Clear
11:15 PM 48.2 °F - 19.4 °F 32% 29.82 in 10.0 mi West 10.4 mph - N/A   Clear
11:35 PM 50.0 °F - 17.6 °F 28% 29.82 in 10.0 mi WSW 13.8 mph 25.3 mph N/A   Clear
11:55 PM 53.6 °F - 17.6 °F 24% 29.80 in 10.0 mi SW 24.2 mph 28.8 mph N/A   Clear